createdAt,value
2022-12-24T00:00:57.888Z,6.34
2022-12-24T00:05:14.129Z,6.37
2022-12-24T00:09:30.273Z,6.39
2022-12-24T00:13:46.904Z,6.41
2022-12-24T00:18:03.189Z,6.02
2022-12-24T00:22:19.484Z,6.21
2022-12-24T00:26:35.782Z,6.26
2022-12-24T00:30:51.980Z,5.97
2022-12-24T00:35:08.664Z,5.70
2022-12-24T00:39:25.007Z,5.88
2022-12-24T00:43:41.116Z,6.25
2022-12-24T00:47:57.314Z,6.38
2022-12-24T00:52:13.469Z,6.01
2022-12-24T00:56:29.755Z,6.05
2022-12-24T01:00:45.949Z,6.35
2022-12-24T01:05:11.170Z,6.27
2022-12-24T01:09:27.423Z,6.01
2022-12-24T01:13:43.659Z,6.00
2022-12-24T01:17:59.845Z,6.18
2022-12-24T01:22:16.194Z,6.42
2022-12-24T01:26:32.326Z,6.30
2022-12-24T01:30:49.476Z,6.22
2022-12-24T01:35:06.050Z,6.47
2022-12-24T01:39:22.212Z,6.54
2022-12-24T01:43:38.462Z,6.50
2022-12-24T01:47:54.729Z,6.61
2022-12-24T01:52:23.396Z,6.33
2022-12-24T01:56:47.493Z,6.23
2022-12-24T02:01:05.346Z,6.00
2022-12-24T02:05:40.952Z,5.87
2022-12-24T02:10:01.811Z,6.27
2022-12-24T02:14:19.108Z,6.15
2022-12-24T02:18:38.712Z,6.08
2022-12-24T02:23:53.077Z,5.99
2022-12-24T02:28:14.164Z,6.18
2022-12-24T02:32:33.140Z,6.56
2022-12-24T02:37:16.330Z,6.38
2022-12-24T02:42:03.992Z,6.45
2022-12-24T02:46:28.263Z,6.43
2022-12-24T02:51:03.523Z,6.33
2022-12-24T02:55:28.313Z,6.27
2022-12-24T03:00:07.960Z,6.44
2022-12-24T03:04:46.828Z,6.54
2022-12-24T03:09:14.228Z,6.39
2022-12-24T03:13:30.783Z,6.43
2022-12-24T03:17:49.652Z,6.36
2022-12-24T03:22:09.441Z,6.45
2022-12-24T03:26:27.005Z,6.29
2022-12-24T03:30:44.391Z,6.26
2022-12-24T03:35:00.879Z,6.30
2022-12-24T03:39:17.202Z,6.50
2022-12-24T03:43:34.037Z,6.06
2022-12-24T03:47:50.224Z,6.11
2022-12-24T03:52:06.369Z,6.14
2022-12-24T03:56:23.015Z,6.33
2022-12-24T04:00:39.308Z,6.34
2022-12-24T04:04:55.667Z,6.57
2022-12-24T04:09:11.994Z,6.44
2022-12-24T04:13:28.107Z,6.45
2022-12-24T04:17:44.354Z,6.49
2022-12-24T04:22:00.582Z,6.46
2022-12-24T04:26:16.825Z,6.57
2022-12-24T04:30:33.055Z,6.45
2022-12-24T04:34:49.312Z,6.52
2022-12-24T04:39:05.553Z,6.42
2022-12-24T04:43:21.689Z,6.65
2022-12-24T04:47:37.932Z,6.49
2022-12-24T04:51:54.115Z,6.79
2022-12-24T04:56:18.182Z,6.77
2022-12-24T05:00:34.457Z,6.71
2022-12-24T05:04:50.768Z,6.68
2022-12-24T05:09:06.979Z,7.14
2022-12-24T05:13:23.230Z,7.24
2022-12-24T05:17:39.373Z,7.11
2022-12-24T05:22:27.851Z,7.22
2022-12-24T05:26:56.109Z,7.45
2022-12-24T05:31:12.475Z,7.44
2022-12-24T05:35:28.719Z,7.67
2022-12-24T05:39:44.919Z,7.66
2022-12-24T05:44:01.250Z,7.76
2022-12-24T05:48:17.465Z,7.93
2022-12-24T05:52:33.791Z,7.96
2022-12-24T05:56:49.971Z,7.46
2022-12-24T06:01:07.102Z,7.72
2022-12-24T06:05:23.319Z,8.16
2022-12-24T06:09:39.590Z,8.21
2022-12-24T06:13:56.116Z,8.16
2022-12-24T06:18:12.302Z,8.11
2022-12-24T06:22:28.545Z,8.03
2022-12-24T06:26:44.693Z,7.64
2022-12-24T06:31:04.035Z,7.80
2022-12-24T06:35:20.277Z,8.05
2022-12-24T06:39:36.456Z,8.26
2022-12-24T06:43:54.024Z,8.23
2022-12-24T06:48:10.434Z,8.40
2022-12-24T06:52:26.641Z,8.38
2022-12-24T06:56:42.776Z,8.31
2022-12-24T07:01:00.895Z,7.99
2022-12-24T07:05:17.157Z,7.76
2022-12-24T07:09:33.308Z,8.30
2022-12-24T07:13:49.603Z,8.17
2022-12-24T07:18:05.813Z,8.24
2022-12-24T07:22:22.092Z,7.80
2022-12-24T07:26:38.340Z,8.55
2022-12-24T07:30:54.724Z,8.26
2022-12-24T07:35:11.190Z,8.26
2022-12-24T07:39:27.518Z,8.00
2022-12-24T07:43:43.918Z,8.46
2022-12-24T07:47:59.978Z,8.42
2022-12-24T07:52:16.227Z,8.36
2022-12-24T07:56:32.983Z,8.52
2022-12-24T08:00:49.282Z,8.40
2022-12-24T08:05:06.104Z,8.69
2022-12-24T08:09:22.666Z,8.77
2022-12-24T08:13:39.029Z,9.21
2022-12-24T08:17:55.188Z,9.35
2022-12-24T08:22:11.400Z,9.20
2022-12-24T08:26:27.633Z,8.86
2022-12-24T08:30:44.075Z,8.99
2022-12-24T08:35:00.257Z,9.27
2022-12-24T08:39:16.434Z,9.36
2022-12-24T08:43:32.629Z,9.41
2022-12-24T08:47:48.839Z,9.69
2022-12-24T08:52:05.072Z,9.80
2022-12-24T08:56:21.217Z,9.77
2022-12-24T09:00:38.344Z,9.72
2022-12-24T09:04:54.714Z,10.13
2022-12-24T09:09:10.823Z,9.70
2022-12-24T09:13:26.978Z,10.09
2022-12-24T09:17:43.168Z,10.10
2022-12-24T09:21:59.267Z,10.38
2022-12-24T09:26:17.991Z,10.37
2022-12-24T09:30:34.358Z,10.28
2022-12-24T09:34:50.545Z,10.48
2022-12-24T09:39:06.727Z,10.60
2022-12-24T09:43:25.869Z,10.86
2022-12-24T09:47:52.235Z,10.76
2022-12-24T09:52:12.827Z,10.95
2022-12-24T09:56:40.742Z,10.05
2022-12-24T10:00:57.830Z,10.80
2022-12-24T10:05:18.646Z,11.05
2022-12-24T10:09:59.441Z,11.18
2022-12-24T10:19:58.760Z,10.97
2022-12-24T10:24:34.912Z,11.19
2022-12-24T10:29:32.394Z,11.57
2022-12-24T10:33:54.684Z,11.39
2022-12-24T10:38:11.173Z,11.78
2022-12-24T10:42:50.558Z,12.02
2022-12-24T10:47:09.754Z,12.29
2022-12-24T10:51:42.164Z,12.24
2022-12-24T10:56:07.328Z,12.16
2022-12-24T11:00:31.797Z,12.03
2022-12-24T11:04:51.954Z,12.08
2022-12-24T11:09:43.583Z,11.77
2022-12-24T11:14:01.962Z,12.01
2022-12-24T11:18:18.276Z,12.54
2022-12-24T11:22:35.360Z,12.19
2022-12-24T11:26:51.528Z,13.05
2022-12-24T11:31:20.541Z,12.92
2022-12-24T11:35:48.058Z,13.33
2022-12-24T11:40:04.679Z,13.70
2022-12-24T11:44:28.775Z,13.56
2022-12-24T11:48:47.475Z,14.01
2022-12-24T11:53:03.888Z,13.44
2022-12-24T11:57:21.036Z,13.89
2022-12-24T12:01:40.752Z,13.87
2022-12-24T12:05:59.250Z,13.40
2022-12-24T12:10:25.314Z,13.93
2022-12-24T12:14:51.177Z,13.88
2022-12-24T12:19:14.924Z,13.86
2022-12-24T12:23:43.251Z,13.21
2022-12-24T12:28:01.211Z,12.81
2022-12-24T12:32:49.364Z,13.48
2022-12-24T12:37:38.565Z,13.37
2022-12-24T12:42:34.143Z,14.28
2022-12-24T12:47:27.626Z,13.98
2022-12-24T12:52:08.485Z,14.51
2022-12-24T12:56:37.828Z,15.17
2022-12-24T13:01:03.267Z,14.56
2022-12-24T13:05:34.936Z,13.98
2022-12-24T13:10:03.026Z,14.34
2022-12-24T13:14:28.717Z,14.19
2022-12-24T13:18:53.788Z,14.19
2022-12-24T13:23:15.161Z,13.57
2022-12-24T13:27:33.159Z,13.53
2022-12-24T13:31:49.549Z,14.19
2022-12-24T13:36:10.813Z,16.96
2022-12-24T13:40:28.464Z,19.17
2022-12-24T13:44:44.690Z,19.68
2022-12-24T13:49:12.980Z,19.58
2022-12-24T13:53:46.412Z,18.27
2022-12-24T13:58:04.488Z,19.51
2022-12-24T14:02:22.082Z,21.46
2022-12-24T14:06:41.453Z,22.34
2022-12-24T14:11:10.729Z,23.27
2022-12-24T14:16:08.061Z,23.53
2022-12-24T14:20:25.547Z,20.21
2022-12-24T14:24:50.348Z,17.75
2022-12-24T14:29:25.006Z,16.98
2022-12-24T14:33:41.441Z,15.99
2022-12-24T14:38:06.320Z,15.33
2022-12-24T14:42:45.059Z,14.48
2022-12-24T14:47:23.192Z,13.59
2022-12-24T14:51:57.145Z,13.64
2022-12-24T14:56:18.871Z,13.57
2022-12-24T15:00:39.458Z,13.24
2022-12-24T15:05:29.916Z,12.97
2022-12-24T15:09:46.183Z,13.00
2022-12-24T15:14:04.641Z,12.53
2022-12-24T15:18:24.401Z,12.84
2022-12-24T15:22:41.198Z,12.90
2022-12-24T15:26:57.471Z,12.98
2022-12-24T15:31:18.044Z,12.58
2022-12-24T15:35:55.608Z,12.60
2022-12-24T15:40:22.760Z,12.33
2022-12-24T15:44:40.658Z,12.19
2022-12-24T15:48:59.128Z,12.26
2022-12-24T15:53:28.466Z,12.15
2022-12-24T15:57:44.723Z,12.21
2022-12-24T16:02:42.793Z,12.07
2022-12-24T16:07:06.969Z,12.32
2022-12-24T16:11:34.011Z,12.09
2022-12-24T16:15:54.501Z,12.33
2022-12-24T16:20:20.356Z,12.39
2022-12-24T16:24:36.750Z,12.16
2022-12-24T16:28:52.939Z,12.27
2022-12-24T16:33:18.983Z,12.16
2022-12-24T16:37:35.275Z,12.39
2022-12-24T16:42:18.053Z,11.92
2022-12-24T16:46:35.156Z,11.84
2022-12-24T16:50:52.725Z,11.79
2022-12-24T16:55:09.833Z,11.76
2022-12-24T16:59:26.208Z,11.72
2022-12-24T17:03:42.632Z,11.85
2022-12-24T17:08:02.035Z,11.53
2022-12-24T17:12:18.251Z,11.40
2022-12-24T17:16:34.629Z,11.24
2022-12-24T17:21:01.674Z,11.37
2022-12-24T17:25:17.955Z,11.62
2022-12-24T17:29:34.285Z,11.51
2022-12-24T17:33:51.973Z,11.51
2022-12-24T17:38:08.322Z,11.47
2022-12-24T17:42:24.698Z,11.37
2022-12-24T17:46:41.277Z,11.58
2022-12-24T17:50:57.811Z,11.04
2022-12-24T17:55:14.011Z,11.49
2022-12-24T17:59:30.251Z,11.88
2022-12-24T18:03:50.767Z,11.30
2022-12-24T18:08:07.509Z,11.74
2022-12-24T18:12:23.722Z,11.36
2022-12-24T18:16:41.064Z,11.68
2022-12-24T18:20:57.344Z,11.41
2022-12-24T18:25:13.703Z,11.40
2022-12-24T18:29:30.201Z,11.61
2022-12-24T18:33:47.876Z,11.70
2022-12-24T18:38:04.172Z,11.56
2022-12-24T18:42:20.449Z,11.75
2022-12-24T18:46:36.714Z,11.58
2022-12-24T18:50:59.433Z,11.39
2022-12-24T18:55:15.657Z,11.15
2022-12-24T18:59:31.975Z,11.19
2022-12-24T19:03:49.441Z,11.01
2022-12-24T19:08:22.144Z,11.23
2022-12-24T19:12:42.194Z,11.34
2022-12-24T19:17:11.937Z,10.94
2022-12-24T19:21:39.596Z,11.09
2022-12-24T19:25:56.025Z,11.02
2022-12-24T19:30:13.647Z,10.83
2022-12-24T19:34:29.943Z,10.82
2022-12-24T19:38:46.864Z,11.05
2022-12-24T19:43:03.277Z,11.19
2022-12-24T19:47:19.488Z,11.12
2022-12-24T19:51:36.140Z,11.40
2022-12-24T19:55:52.525Z,11.30
2022-12-24T20:00:10.558Z,11.46
2022-12-24T20:04:26.934Z,11.58
2022-12-24T20:08:43.825Z,11.69
2022-12-24T20:13:05.722Z,11.56
2022-12-24T20:17:22.405Z,11.74
2022-12-24T20:21:38.703Z,11.68
2022-12-24T20:25:59.929Z,11.93
2022-12-24T20:30:16.477Z,11.81
2022-12-24T20:34:32.716Z,12.05
2022-12-24T20:38:49.689Z,11.92
2022-12-24T20:43:05.986Z,11.94
2022-12-24T20:47:22.371Z,11.79
2022-12-24T20:51:38.611Z,11.93
2022-12-24T20:55:55.161Z,11.64
2022-12-24T21:00:12.297Z,11.41
2022-12-24T21:04:28.645Z,11.56
2022-12-24T21:08:46.617Z,11.49
2022-12-24T21:13:03.065Z,11.45
2022-12-24T21:17:19.359Z,11.70
2022-12-24T21:21:36.488Z,11.43
2022-12-24T21:26:04.129Z,11.58
2022-12-24T21:30:20.790Z,11.32
2022-12-24T21:34:37.011Z,11.06
2022-12-24T21:38:54.376Z,11.28
2022-12-24T21:43:10.592Z,10.86
2022-12-24T21:47:27.209Z,10.71
2022-12-24T21:51:45.080Z,10.23
2022-12-24T21:56:08.536Z,10.18
2022-12-24T22:00:27.130Z,10.03
2022-12-24T22:04:43.850Z,10.19
2022-12-24T22:09:18.454Z,10.22
2022-12-24T22:13:34.663Z,10.44
2022-12-24T22:17:51.045Z,10.31
2022-12-24T22:22:07.448Z,10.55
2022-12-24T22:26:23.731Z,10.40
2022-12-24T22:30:41.669Z,10.35
2022-12-24T22:34:58.006Z,10.43
2022-12-24T22:39:14.442Z,10.42
2022-12-24T22:43:30.697Z,10.56
2022-12-24T22:47:46.954Z,10.56
2022-12-24T22:52:03.622Z,10.48
2022-12-24T22:56:22.162Z,10.36
2022-12-24T23:00:46.271Z,10.43
2022-12-24T23:05:02.667Z,10.27
2022-12-24T23:09:19.100Z,10.29
2022-12-24T23:13:56.414Z,10.12
2022-12-24T23:18:12.924Z,10.30
2022-12-24T23:22:29.053Z,10.19
2022-12-24T23:26:45.311Z,10.44
2022-12-24T23:31:01.611Z,10.26
2022-12-24T23:35:18.203Z,9.98
2022-12-24T23:39:37.587Z,9.87
2022-12-24T23:43:54.050Z,10.27
2022-12-24T23:48:10.277Z,10.41
2022-12-24T23:52:26.520Z,10.24
2022-12-24T23:56:42.746Z,9.89
